createdAt,value
2022-07-25T00:00:33.525Z,4.80
2022-07-25T00:01:33.578Z,4.60
2022-07-25T00:02:33.502Z,4.50
2022-07-25T00:03:33.503Z,4.90
2022-07-25T00:04:33.521Z,5.10
2022-07-25T00:05:37.856Z,4.70
2022-07-25T00:06:34.471Z,4.90
2022-07-25T00:07:33.454Z,4.70
2022-07-25T00:08:33.457Z,5.10
2022-07-25T00:09:33.446Z,4.40
2022-07-25T00:10:33.434Z,4.80
2022-07-25T00:11:33.419Z,4.70
2022-07-25T00:12:33.406Z,4.90
2022-07-25T00:13:33.411Z,4.90
2022-07-25T00:14:33.396Z,4.70
2022-07-25T00:15:33.376Z,4.50
2022-07-25T00:16:33.408Z,4.80
2022-07-25T00:17:33.344Z,4.80
2022-07-25T00:18:34.384Z,4.80
2022-07-25T00:19:33.331Z,4.90
2022-07-25T00:20:33.327Z,4.50
2022-07-25T00:21:33.315Z,4.90
2022-07-25T00:22:33.305Z,5.00
2022-07-25T00:23:33.300Z,5.10
2022-07-25T00:24:33.301Z,4.50
2022-07-25T00:25:33.280Z,5.10
2022-07-25T00:26:37.916Z,4.80
2022-07-25T00:27:35.262Z,4.90
2022-07-25T00:28:33.248Z,4.60
2022-07-25T00:29:33.257Z,5.00
2022-07-25T00:30:33.230Z,4.60
2022-07-25T00:31:33.244Z,5.20
2022-07-25T00:32:33.209Z,5.00
2022-07-25T00:33:33.195Z,4.90
2022-07-25T00:34:33.206Z,4.90
2022-07-25T00:35:33.183Z,5.00
2022-07-25T00:36:33.174Z,5.00
2022-07-25T00:37:33.167Z,5.20
2022-07-25T00:38:33.153Z,4.60
2022-07-25T00:39:33.160Z,5.10
2022-07-25T00:40:33.134Z,4.90
2022-07-25T00:41:33.127Z,4.70
2022-07-25T00:42:33.118Z,4.90
2022-07-25T00:43:33.116Z,4.80
2022-07-25T00:44:33.126Z,4.80
2022-07-25T00:45:33.089Z,4.70
2022-07-25T00:46:33.100Z,4.60
2022-07-25T00:47:33.070Z,4.90
2022-07-25T00:48:33.154Z,5.00
2022-07-25T00:49:33.078Z,5.10
2022-07-25T00:50:33.038Z,4.70
2022-07-25T00:51:33.030Z,5.10
2022-07-25T00:52:33.020Z,5.10
2022-07-25T00:53:33.011Z,5.00
2022-07-25T00:54:33.040Z,4.90
2022-07-25T00:55:32.988Z,5.00
2022-07-25T00:56:32.979Z,5.00
2022-07-25T00:57:32.971Z,5.20
2022-07-25T00:58:32.967Z,5.30
2022-07-25T00:59:32.947Z,4.70
2022-07-25T01:00:32.963Z,5.00
2022-07-25T01:01:32.959Z,5.10
2022-07-25T01:02:32.958Z,5.10
2022-07-25T01:03:32.907Z,4.60
2022-07-25T01:04:32.900Z,5.30
2022-07-25T01:05:32.907Z,4.90
2022-07-25T01:06:32.882Z,5.10
2022-07-25T01:07:32.911Z,4.80
2022-07-25T01:08:32.865Z,5.10
2022-07-25T01:09:32.849Z,5.10
2022-07-25T01:10:32.857Z,5.20
2022-07-25T01:11:32.836Z,5.20
2022-07-25T01:12:32.822Z,5.70
2022-07-25T01:13:32.810Z,4.90
2022-07-25T01:14:32.798Z,5.20
2022-07-25T01:15:32.832Z,5.20
2022-07-25T01:16:32.784Z,5.00
2022-07-25T01:17:32.776Z,5.30
2022-07-25T01:18:32.761Z,5.30
2022-07-25T01:19:32.749Z,6.00
2022-07-25T01:20:32.773Z,5.60
2022-07-25T01:21:32.729Z,5.90
2022-07-25T01:22:32.728Z,5.40
2022-07-25T01:23:32.707Z,5.60
2022-07-25T01:24:32.700Z,5.60
2022-07-25T01:25:32.730Z,5.10
2022-07-25T01:26:32.690Z,5.60
2022-07-25T01:27:32.668Z,5.80
2022-07-25T01:28:32.662Z,5.20
2022-07-25T01:29:32.651Z,5.60
2022-07-25T01:30:32.643Z,5.00
2022-07-25T01:31:32.738Z,5.40
2022-07-25T01:32:32.622Z,5.70
2022-07-25T01:33:32.615Z,6.00
2022-07-25T01:34:32.607Z,5.50
2022-07-25T01:35:32.594Z,5.50
2022-07-25T01:36:32.602Z,5.50
2022-07-25T01:37:32.573Z,5.30
2022-07-25T01:38:32.561Z,5.30
2022-07-25T01:39:32.551Z,5.30
2022-07-25T01:40:32.586Z,5.00
2022-07-25T01:41:32.553Z,5.10
2022-07-25T01:42:32.522Z,5.30
2022-07-25T01:43:32.520Z,5.30
2022-07-25T01:44:32.502Z,4.90
2022-07-25T01:45:32.498Z,5.10
2022-07-25T01:46:32.569Z,5.30
2022-07-25T01:47:32.470Z,4.80
2022-07-25T01:48:32.493Z,4.80
2022-07-25T01:49:32.453Z,5.40
2022-07-25T01:50:32.441Z,5.10
2022-07-25T01:51:32.471Z,5.20
2022-07-25T01:52:32.424Z,4.90
2022-07-25T01:53:32.410Z,4.80
2022-07-25T01:54:32.404Z,5.10
2022-07-25T01:55:32.497Z,4.90
2022-07-25T01:56:33.409Z,5.60
2022-07-25T01:57:32.374Z,5.20
2022-07-25T01:58:32.364Z,5.30
2022-07-25T01:59:32.353Z,5.20
2022-07-25T02:00:32.344Z,5.40
2022-07-25T02:02:04.375Z,5.50
2022-07-25T02:02:32.324Z,5.00
2022-07-25T02:03:32.311Z,5.40
2022-07-25T02:04:32.365Z,5.60
2022-07-25T02:05:32.289Z,5.40
2022-07-25T02:06:32.282Z,5.80
2022-07-25T02:07:32.290Z,5.20
2022-07-25T02:08:32.268Z,5.60
2022-07-25T02:09:32.252Z,5.40
2022-07-25T02:10:32.246Z,5.10
2022-07-25T02:11:32.235Z,5.30
2022-07-25T02:12:32.239Z,5.00
2022-07-25T02:13:32.216Z,5.50
2022-07-25T02:14:32.206Z,5.10
2022-07-25T02:15:32.200Z,5.20
2022-07-25T02:16:32.219Z,5.50
2022-07-25T02:17:32.190Z,5.10
2022-07-25T02:18:32.169Z,5.40
2022-07-25T02:19:32.159Z,5.20
2022-07-25T02:20:32.150Z,5.10
2022-07-25T02:21:32.133Z,4.80
2022-07-25T02:22:32.168Z,4.60
2022-07-25T02:23:32.115Z,5.20
2022-07-25T02:24:32.103Z,5.00
2022-07-25T02:25:32.097Z,5.20
2022-07-25T02:26:32.085Z,5.60
2022-07-25T02:27:32.119Z,5.10
2022-07-25T02:28:32.066Z,5.30
2022-07-25T02:29:32.050Z,5.70
2022-07-25T02:30:32.077Z,5.70
2022-07-25T02:31:32.036Z,5.30
2022-07-25T02:32:32.030Z,5.70
2022-07-25T02:33:32.030Z,5.60
2022-07-25T02:34:32.006Z,5.10
2022-07-25T02:35:31.994Z,5.10
2022-07-25T02:36:31.985Z,5.70
2022-07-25T02:37:31.977Z,5.60
2022-07-25T02:38:31.980Z,5.50
2022-07-25T02:39:31.958Z,5.60
2022-07-25T02:40:31.945Z,5.70
2022-07-25T02:41:31.937Z,5.20
2022-07-25T02:42:31.925Z,5.70
2022-07-25T02:43:31.955Z,5.50
2022-07-25T02:44:31.908Z,5.50
2022-07-25T02:45:31.899Z,5.20
2022-07-25T02:46:31.948Z,5.40
2022-07-25T02:47:31.878Z,5.40
2022-07-25T02:48:31.941Z,5.30
2022-07-25T02:49:31.853Z,5.20
2022-07-25T02:50:31.850Z,5.00
2022-07-25T02:51:31.839Z,5.30
2022-07-25T02:52:31.824Z,5.40
2022-07-25T02:53:55.600Z,5.20
2022-07-25T02:54:33.822Z,5.10
2022-07-25T02:55:31.798Z,5.30
2022-07-25T02:56:32.083Z,5.80
2022-07-25T02:57:31.778Z,5.20
2022-07-25T02:58:31.807Z,5.60
2022-07-25T02:59:32.106Z,5.70
2022-07-25T03:00:31.747Z,6.00
2022-07-25T03:01:31.826Z,5.70
2022-07-25T03:02:31.726Z,5.30
2022-07-25T03:03:31.779Z,5.50
2022-07-25T03:04:31.774Z,5.30
2022-07-25T03:05:31.694Z,5.20
2022-07-25T03:06:31.686Z,5.20
2022-07-25T03:07:31.675Z,5.60
2022-07-25T03:08:31.668Z,5.50
2022-07-25T03:09:31.683Z,5.90
2022-07-25T03:10:31.652Z,5.80
2022-07-25T03:11:31.632Z,5.50
2022-07-25T03:12:31.630Z,5.80
2022-07-25T03:13:31.620Z,5.50
2022-07-25T03:14:31.649Z,5.50
2022-07-25T03:15:31.608Z,5.00
2022-07-25T03:16:31.613Z,5.50
2022-07-25T03:17:31.575Z,5.70
2022-07-25T03:18:31.568Z,6.20
2022-07-25T03:19:31.558Z,5.80
2022-07-25T03:20:31.578Z,5.90
2022-07-25T03:21:31.540Z,5.50
2022-07-25T03:22:31.532Z,5.90
2022-07-25T03:23:31.520Z,6.00
2022-07-25T03:24:31.507Z,5.80
2022-07-25T03:25:31.532Z,5.70
2022-07-25T03:26:31.486Z,6.00
2022-07-25T03:27:31.475Z,5.80
2022-07-25T03:28:31.470Z,5.90
2022-07-25T03:29:31.459Z,5.80
2022-07-25T03:30:31.461Z,5.90
2022-07-25T03:31:31.487Z,6.00
2022-07-25T03:32:32.422Z,5.90
2022-07-25T03:33:31.415Z,5.60
2022-07-25T03:34:31.405Z,5.90
2022-07-25T03:35:31.393Z,5.40
2022-07-25T03:36:31.404Z,5.90
2022-07-25T03:37:31.375Z,6.00
2022-07-25T03:38:31.366Z,5.80
2022-07-25T03:39:31.356Z,5.90
2022-07-25T03:40:31.348Z,5.70
2022-07-25T03:41:31.359Z,5.90
2022-07-25T03:42:35.445Z,6.20
2022-07-25T03:43:32.320Z,5.40
2022-07-25T03:44:31.306Z,5.50
2022-07-25T03:45:31.326Z,6.00
2022-07-25T03:46:31.359Z,5.70
2022-07-25T03:47:31.286Z,5.50
2022-07-25T03:48:31.341Z,5.90
2022-07-25T03:49:31.261Z,5.60
2022-07-25T03:50:31.257Z,5.60
2022-07-25T03:51:31.283Z,5.80
2022-07-25T03:52:31.233Z,5.70
2022-07-25T03:53:31.224Z,5.60
2022-07-25T03:54:31.211Z,5.60
2022-07-25T03:55:31.205Z,6.20
2022-07-25T03:56:31.228Z,5.70
2022-07-25T03:57:31.192Z,6.10
2022-07-25T03:58:31.180Z,5.70
2022-07-25T03:59:31.169Z,5.70
2022-07-25T04:00:31.177Z,5.80
2022-07-25T04:01:31.176Z,5.50
2022-07-25T04:02:31.232Z,5.60
2022-07-25T04:03:31.126Z,5.80
2022-07-25T04:04:31.122Z,5.90
2022-07-25T04:05:31.119Z,6.30
2022-07-25T04:06:31.107Z,6.50
2022-07-25T04:07:31.109Z,6.50
2022-07-25T04:08:31.077Z,6.10
2022-07-25T04:09:33.658Z,6.90
2022-07-25T04:10:31.065Z,6.60
2022-07-25T04:11:31.054Z,6.10
2022-07-25T04:12:31.072Z,6.20
2022-07-25T04:13:31.027Z,6.30
2022-07-25T04:14:31.024Z,6.60
2022-07-25T04:15:31.052Z,5.70
2022-07-25T04:16:31.056Z,6.00
2022-07-25T04:17:31.011Z,5.90
2022-07-25T04:18:30.984Z,5.80
2022-07-25T04:19:30.976Z,5.70
2022-07-25T04:20:30.964Z,6.00
2022-07-25T04:21:30.951Z,6.30
2022-07-25T04:22:30.942Z,5.90
2022-07-25T04:23:30.953Z,5.50
2022-07-25T04:24:30.923Z,6.10
2022-07-25T04:25:30.914Z,6.40
2022-07-25T04:26:30.902Z,6.20
2022-07-25T04:27:30.894Z,6.20
2022-07-25T04:28:30.907Z,6.40
2022-07-25T04:29:30.877Z,6.00
2022-07-25T04:30:30.867Z,5.90
2022-07-25T04:31:30.876Z,6.10
2022-07-25T04:32:30.842Z,5.80
2022-07-25T04:33:30.848Z,6.00
2022-07-25T04:34:30.822Z,5.80
2022-07-25T04:35:30.814Z,6.50
2022-07-25T04:36:30.802Z,5.60
2022-07-25T04:37:30.798Z,6.10
2022-07-25T04:38:30.828Z,5.70
2022-07-25T04:39:30.778Z,6.20
2022-07-25T04:40:30.766Z,6.60
2022-07-25T04:41:30.758Z,6.10
2022-07-25T04:42:30.746Z,6.00
2022-07-25T04:43:30.779Z,6.30
2022-07-25T04:44:30.726Z,6.00
2022-07-25T04:45:30.775Z,6.20
2022-07-25T04:46:30.709Z,5.80
2022-07-25T04:47:30.697Z,5.60
2022-07-25T04:48:30.723Z,6.20
2022-07-25T04:49:30.695Z,6.10
2022-07-25T04:50:30.669Z,6.00
2022-07-25T04:51:30.659Z,6.00
2022-07-25T04:52:30.652Z,6.30
2022-07-25T04:53:30.652Z,6.10
2022-07-25T04:54:30.646Z,5.80
2022-07-25T04:55:30.614Z,5.80
2022-07-25T04:56:30.605Z,5.70
2022-07-25T04:57:30.594Z,6.10
2022-07-25T04:58:30.602Z,6.30
2022-07-25T04:59:30.589Z,6.20
2022-07-25T05:00:30.625Z,6.10
2022-07-25T05:01:30.605Z,6.40
2022-07-25T05:02:30.580Z,6.30
2022-07-25T05:03:30.549Z,5.80
2022-07-25T05:04:30.542Z,5.80
2022-07-25T05:05:30.513Z,5.80
2022-07-25T05:06:30.504Z,5.90
2022-07-25T05:07:30.491Z,6.30
2022-07-25T05:08:30.500Z,6.40
2022-07-25T05:09:30.491Z,6.10
2022-07-25T05:10:30.468Z,6.10
2022-07-25T05:11:30.454Z,6.40
2022-07-25T05:12:30.447Z,6.00
2022-07-25T05:13:30.456Z,5.80
2022-07-25T05:14:30.440Z,5.80
2022-07-25T05:15:30.413Z,5.90
2022-07-25T05:16:30.443Z,5.50
2022-07-25T05:17:30.392Z,6.10
2022-07-25T05:18:30.401Z,6.50
2022-07-25T05:19:30.396Z,6.60
2022-07-25T05:20:30.369Z,5.90
2022-07-25T05:21:30.348Z,6.10
2022-07-25T05:22:31.350Z,6.20
2022-07-25T05:23:30.355Z,6.40
2022-07-25T05:24:30.343Z,5.80
2022-07-25T05:25:30.318Z,6.00
2022-07-25T05:26:30.311Z,6.00
2022-07-25T05:27:30.298Z,5.80
2022-07-25T05:28:30.326Z,6.20
2022-07-25T05:29:30.298Z,5.90
2022-07-25T05:30:30.261Z,5.80
2022-07-25T05:31:31.323Z,5.70
2022-07-25T05:32:30.251Z,6.00
2022-07-25T05:33:30.360Z,5.50
2022-07-25T05:34:30.249Z,6.20
2022-07-25T05:35:30.222Z,5.90
2022-07-25T05:36:30.206Z,5.70
2022-07-25T05:37:30.201Z,6.20
2022-07-25T05:38:30.207Z,5.70
2022-07-25T05:39:30.196Z,6.10
2022-07-25T05:40:30.176Z,5.80
2022-07-25T05:41:30.163Z,5.60
2022-07-25T05:42:30.152Z,5.80
2022-07-25T05:43:30.142Z,5.90
2022-07-25T05:44:30.171Z,5.60
2022-07-25T05:45:30.127Z,5.90
2022-07-25T05:46:30.127Z,5.80
2022-07-25T05:47:30.100Z,5.90
2022-07-25T05:48:30.128Z,5.70
2022-07-25T05:49:30.113Z,6.20
2022-07-25T05:50:30.066Z,5.90
2022-07-25T05:51:30.063Z,6.30
2022-07-25T05:52:30.051Z,6.30
2022-07-25T05:53:30.047Z,5.90
2022-07-25T05:54:30.034Z,6.40
2022-07-25T05:55:30.044Z,6.20
2022-07-25T05:56:30.015Z,6.30
2022-07-25T05:57:30.007Z,6.40
2022-07-25T05:58:30.295Z,6.20
2022-07-25T05:59:29.992Z,6.40
2022-07-25T06:00:29.994Z,6.40
2022-07-25T06:01:30.012Z,6.50
2022-07-25T06:02:30.038Z,6.30
2022-07-25T06:03:29.999Z,6.30
2022-07-25T06:04:29.938Z,6.00
2022-07-25T06:05:29.941Z,6.40
2022-07-25T06:06:29.917Z,6.30
2022-07-25T06:07:29.909Z,5.70
2022-07-25T06:08:29.901Z,6.40
2022-07-25T06:09:29.890Z,6.40
2022-07-25T06:10:29.912Z,6.40
2022-07-25T06:11:30.804Z,6.50
2022-07-25T06:12:29.861Z,6.40
2022-07-25T06:13:29.850Z,5.80
2022-07-25T06:14:29.850Z,6.60
2022-07-25T06:15:29.883Z,5.90
2022-07-25T06:16:29.923Z,6.40
2022-07-25T06:17:32.510Z,6.20
2022-07-25T06:18:30.800Z,6.30
2022-07-25T06:19:29.841Z,6.00
2022-07-25T06:20:29.781Z,6.30
2022-07-25T06:21:29.806Z,6.10
2022-07-25T06:22:29.761Z,6.70
2022-07-25T06:23:29.751Z,6.40
2022-07-25T06:24:29.745Z,6.10
2022-07-25T06:25:29.735Z,6.30
2022-07-25T06:26:29.778Z,6.30
2022-07-25T06:27:29.716Z,6.20
2022-07-25T06:28:29.707Z,6.50
2022-07-25T06:29:29.697Z,6.20
2022-07-25T06:30:29.686Z,6.20
2022-07-25T06:31:29.743Z,6.10
2022-07-25T06:32:29.704Z,6.30
2022-07-25T06:33:29.661Z,5.70
2022-07-25T06:34:29.645Z,6.20
2022-07-25T06:35:29.639Z,6.20
2022-07-25T06:36:32.414Z,6.50
2022-07-25T06:37:29.668Z,6.00
2022-07-25T06:38:29.611Z,6.40
2022-07-25T06:39:29.601Z,6.70
2022-07-25T06:40:29.591Z,6.60
2022-07-25T06:41:29.586Z,6.40
2022-07-25T06:42:29.610Z,6.30
2022-07-25T06:43:29.579Z,6.40
2022-07-25T06:44:29.555Z,6.10
2022-07-25T06:45:29.556Z,6.00
2022-07-25T06:46:29.738Z,6.20
2022-07-25T06:47:34.125Z,6.10
2022-07-25T06:48:31.555Z,6.30
2022-07-25T06:49:29.503Z,6.60
2022-07-25T06:50:29.501Z,7.00
2022-07-25T06:51:29.483Z,6.50
2022-07-25T06:52:29.482Z,6.20
2022-07-25T06:53:29.501Z,6.50
2022-07-25T06:54:29.455Z,6.70
2022-07-25T06:55:29.450Z,5.90
2022-07-25T06:56:29.437Z,6.20
2022-07-25T06:57:29.438Z,6.20
2022-07-25T06:58:29.438Z,6.00
2022-07-25T06:59:29.418Z,6.50
2022-07-25T07:00:29.443Z,6.40
2022-07-25T07:01:29.470Z,6.10
2022-07-25T07:02:29.405Z,6.50
2022-07-25T07:03:29.429Z,6.30
2022-07-25T07:04:29.365Z,6.40
2022-07-25T07:05:29.354Z,6.20
2022-07-25T07:06:29.344Z,6.00
2022-07-25T07:07:29.335Z,5.90
2022-07-25T07:08:29.353Z,6.10
2022-07-25T07:09:29.317Z,6.50
2022-07-25T07:10:29.308Z,6.10
2022-07-25T07:11:29.303Z,6.30
2022-07-25T07:12:29.290Z,6.90
2022-07-25T07:13:29.284Z,6.30
2022-07-25T07:14:29.285Z,6.40
2022-07-25T07:15:29.261Z,6.40
2022-07-25T07:16:29.295Z,6.20
2022-07-25T07:17:29.242Z,6.30
2022-07-25T07:18:29.241Z,6.20
2022-07-25T07:19:29.237Z,6.50
2022-07-25T07:20:29.217Z,5.70
2022-07-25T07:21:29.204Z,6.30
2022-07-25T07:22:29.196Z,6.30
2022-07-25T07:23:29.285Z,6.30
2022-07-25T07:24:29.213Z,6.40
2022-07-25T07:25:29.180Z,6.20
2022-07-25T07:26:29.159Z,6.20
2022-07-25T07:27:29.143Z,6.30
2022-07-25T07:28:29.131Z,6.20
2022-07-25T07:29:29.190Z,6.50
2022-07-25T07:30:58.561Z,6.20
2022-07-25T07:31:31.185Z,6.10
2022-07-25T07:32:29.102Z,6.30
2022-07-25T07:33:29.092Z,6.60
2022-07-25T07:34:29.078Z,6.20
2022-07-25T07:35:29.087Z,6.20
2022-07-25T07:36:30.062Z,6.50
2022-07-25T07:37:35.048Z,6.10
2022-07-25T07:38:31.050Z,6.10
2022-07-25T07:39:29.123Z,6.50
2022-07-25T07:40:29.051Z,6.80
2022-07-25T07:41:29.019Z,6.00
2022-07-25T07:42:29.006Z,6.40
2022-07-25T07:43:30.248Z,6.20
2022-07-25T07:44:29.992Z,6.30
2022-07-25T07:45:28.997Z,6.60
2022-07-25T07:46:29.034Z,6.60
2022-07-25T07:47:28.965Z,7.20
2022-07-25T07:48:29.024Z,6.30
2022-07-25T07:49:28.992Z,6.50
2022-07-25T07:50:28.949Z,6.30
2022-07-25T07:51:28.924Z,6.40
2022-07-25T07:52:28.915Z,6.30
2022-07-25T07:53:28.909Z,6.60
2022-07-25T07:54:28.896Z,6.20
2022-07-25T07:55:28.906Z,6.60
2022-07-25T07:56:28.881Z,6.40
2022-07-25T07:57:28.871Z,6.50
2022-07-25T07:58:28.863Z,6.10
2022-07-25T07:59:28.853Z,6.10
2022-07-25T08:00:28.880Z,6.50
2022-07-25T08:01:28.856Z,6.00
2022-07-25T08:02:28.874Z,6.10
2022-07-25T08:03:28.816Z,6.20
2022-07-25T08:04:28.803Z,6.60
2022-07-25T08:05:28.838Z,6.30
2022-07-25T08:06:28.840Z,6.30
2022-07-25T08:07:28.786Z,6.70
2022-07-25T08:08:31.392Z,5.80
2022-07-25T08:09:29.760Z,6.40
2022-07-25T08:10:28.748Z,6.10
2022-07-25T08:11:28.750Z,6.70
2022-07-25T08:12:28.729Z,6.30
2022-07-25T08:13:28.720Z,6.40
2022-07-25T08:14:28.711Z,5.90
2022-07-25T08:15:28.703Z,6.10
2022-07-25T08:16:28.804Z,6.20
2022-07-25T08:17:28.932Z,6.30
2022-07-25T08:18:29.682Z,6.10
2022-07-25T08:19:28.671Z,6.00
2022-07-25T08:20:37.920Z,6.40
2022-07-25T08:21:30.660Z,6.10
2022-07-25T08:22:28.628Z,6.20
2022-07-25T08:23:29.654Z,6.40
2022-07-25T08:24:28.615Z,6.80
2022-07-25T08:25:28.609Z,6.50
2022-07-25T08:26:28.617Z,6.70
2022-07-25T08:27:28.593Z,6.60
2022-07-25T08:28:28.584Z,6.50
2022-07-25T08:29:28.582Z,6.30
2022-07-25T08:30:28.559Z,6.50
2022-07-25T08:31:28.646Z,6.60
2022-07-25T08:32:28.539Z,5.90
2022-07-25T08:33:28.542Z,6.70
2022-07-25T08:34:28.524Z,6.20
2022-07-25T08:35:28.512Z,6.80
2022-07-25T08:36:34.520Z,6.60
2022-07-25T08:37:29.548Z,6.40
2022-07-25T08:38:28.516Z,6.10
2022-07-25T08:39:28.479Z,6.50
2022-07-25T08:40:28.470Z,6.50
2022-07-25T08:41:28.489Z,6.30
2022-07-25T08:42:28.453Z,6.30
2022-07-25T08:43:28.450Z,6.30
2022-07-25T08:44:28.432Z,6.20
2022-07-25T08:45:28.425Z,6.90
2022-07-25T08:46:28.476Z,6.30
2022-07-25T08:47:28.410Z,6.00
2022-07-25T08:48:28.429Z,6.40
2022-07-25T08:49:28.389Z,6.30
2022-07-25T08:50:28.380Z,6.50
2022-07-25T08:51:28.369Z,6.30
2022-07-25T08:52:28.376Z,6.90
2022-07-25T08:53:33.200Z,6.00
2022-07-25T08:54:30.349Z,6.20
2022-07-25T08:55:28.333Z,6.60
2022-07-25T08:56:28.319Z,6.30
2022-07-25T08:57:28.388Z,6.00
2022-07-25T08:58:28.303Z,6.10
2022-07-25T08:59:28.289Z,6.70
2022-07-25T09:00:28.283Z,6.00
2022-07-25T09:01:34.388Z,6.50
2022-07-25T09:02:30.415Z,6.00
2022-07-25T09:03:28.317Z,6.80
2022-07-25T09:04:28.309Z,6.70
2022-07-25T09:05:28.237Z,6.40
2022-07-25T09:06:28.226Z,6.70
2022-07-25T09:07:28.245Z,6.50
2022-07-25T09:08:28.205Z,7.00
2022-07-25T09:09:28.209Z,6.50
2022-07-25T09:10:28.186Z,6.70
2022-07-25T09:11:28.180Z,6.50
2022-07-25T09:12:28.171Z,7.10
2022-07-25T09:13:28.200Z,6.50
2022-07-25T09:14:28.149Z,6.80
2022-07-25T09:15:28.141Z,7.10
2022-07-25T09:16:28.190Z,6.00
2022-07-25T09:17:28.122Z,6.60
2022-07-25T09:18:28.152Z,6.70
2022-07-25T09:19:28.105Z,6.30
2022-07-25T09:20:28.094Z,6.60
2022-07-25T09:21:28.087Z,6.70
2022-07-25T09:22:28.079Z,7.10
2022-07-25T09:23:28.070Z,6.30
2022-07-25T09:24:28.105Z,6.30
2022-07-25T09:25:28.054Z,6.20
2022-07-25T09:26:28.036Z,6.70
2022-07-25T09:27:28.031Z,6.70
2022-07-25T09:28:28.018Z,6.60
2022-07-25T09:29:28.054Z,6.20
2022-07-25T09:30:28.003Z,6.60
2022-07-25T09:31:28.063Z,7.00
2022-07-25T09:32:27.988Z,6.50
2022-07-25T09:33:27.983Z,6.40
2022-07-25T09:34:27.967Z,6.40
2022-07-25T09:35:27.988Z,6.50
2022-07-25T09:36:27.950Z,6.50
2022-07-25T09:37:27.937Z,6.30
2022-07-25T09:38:27.930Z,6.30
2022-07-25T09:39:27.921Z,6.30
2022-07-25T09:40:27.943Z,6.40
2022-07-25T09:41:27.901Z,5.90
2022-07-25T09:42:27.890Z,6.40
2022-07-25T09:43:27.887Z,5.90
2022-07-25T09:44:27.874Z,6.60
2022-07-25T09:45:31.426Z,6.20
2022-07-25T09:46:28.910Z,6.40
2022-07-25T09:47:27.853Z,6.40
2022-07-25T09:48:27.860Z,6.50
2022-07-25T09:49:27.828Z,6.20
2022-07-25T09:50:27.818Z,6.50
2022-07-25T09:51:27.842Z,6.40
2022-07-25T09:52:27.799Z,6.10
2022-07-25T09:53:27.785Z,6.20
2022-07-25T09:54:28.779Z,6.30
2022-07-25T09:55:27.769Z,6.20
2022-07-25T09:56:27.765Z,6.50
2022-07-25T09:57:27.782Z,6.10
2022-07-25T09:58:27.743Z,6.20
2022-07-25T09:59:27.733Z,6.20
2022-07-25T10:00:27.724Z,6.40
2022-07-25T10:01:27.782Z,6.20
2022-07-25T10:02:27.830Z,6.40
2022-07-25T10:03:27.697Z,6.10
2022-07-25T10:04:27.688Z,5.60
2022-07-25T10:05:27.678Z,6.00
2022-07-25T10:06:27.674Z,6.00
2022-07-25T10:07:31.286Z,5.80
2022-07-25T10:08:28.695Z,6.30
2022-07-25T10:09:27.638Z,6.00
2022-07-25T10:10:27.635Z,5.90
2022-07-25T10:11:27.618Z,6.20
2022-07-25T10:12:27.611Z,5.70
2022-07-25T10:13:27.631Z,6.30
2022-07-25T10:14:27.601Z,6.30
2022-07-25T10:15:27.575Z,6.70
2022-07-25T10:16:28.644Z,6.40
2022-07-25T10:17:27.562Z,6.20
2022-07-25T10:18:27.578Z,6.50
2022-07-25T10:19:27.576Z,6.10
2022-07-25T10:20:27.539Z,6.40
2022-07-25T10:21:28.467Z,6.30
2022-07-25T10:22:53.858Z,5.20
2022-07-25T10:23:29.504Z,6.10
2022-07-25T10:24:27.532Z,6.00
2022-07-25T10:25:27.482Z,6.00
2022-07-25T10:26:27.475Z,6.40
2022-07-25T10:27:27.467Z,6.40
2022-07-25T10:28:27.459Z,5.80
2022-07-25T10:29:27.450Z,6.00
2022-07-25T10:30:27.520Z,6.40
2022-07-25T10:31:27.473Z,5.90
2022-07-25T10:32:27.416Z,6.10
2022-07-25T10:33:27.412Z,6.20
2022-07-25T10:34:27.441Z,5.60
2022-07-25T10:35:27.413Z,6.00
2022-07-25T10:36:27.380Z,5.70
2022-07-25T10:37:27.381Z,5.30
2022-07-25T10:38:27.360Z,5.80
2022-07-25T10:39:27.359Z,5.70
2022-07-25T10:40:27.340Z,5.70
2022-07-25T10:41:27.370Z,5.50
2022-07-25T10:42:27.334Z,5.80
2022-07-25T10:43:27.313Z,5.60
2022-07-25T10:44:27.298Z,5.80
2022-07-25T10:45:27.292Z,6.00
2022-07-25T10:46:27.386Z,5.80
2022-07-25T10:47:27.278Z,5.50
2022-07-25T10:48:27.359Z,5.70
2022-07-25T10:49:32.211Z,5.40
2022-07-25T10:50:53.664Z,5.70
2022-07-25T10:51:29.269Z,5.30
2022-07-25T10:52:27.227Z,5.30
2022-07-25T10:53:27.225Z,5.60
2022-07-25T10:54:27.207Z,5.40
2022-07-25T10:55:27.202Z,5.30
2022-07-25T10:56:27.196Z,5.50
2022-07-25T10:57:31.441Z,5.70
2022-07-25T10:58:28.169Z,5.70
2022-07-25T10:59:27.189Z,5.70
2022-07-25T11:00:27.178Z,5.50
2022-07-25T11:01:27.201Z,5.40
2022-07-25T11:02:27.238Z,5.70
2022-07-25T11:03:27.126Z,5.40
2022-07-25T11:04:27.123Z,5.50
2022-07-25T11:05:27.106Z,5.40
2022-07-25T11:06:27.099Z,5.50
2022-07-25T11:07:27.092Z,5.70
2022-07-25T11:08:27.113Z,5.50
2022-07-25T11:09:28.041Z,5.30
2022-07-25T11:10:28.064Z,5.30
2022-07-25T11:11:27.059Z,5.70
2022-07-25T11:12:27.042Z,5.20
2022-07-25T11:13:27.070Z,4.90
2022-07-25T11:14:27.028Z,5.00
2022-07-25T11:15:27.017Z,5.40
2022-07-25T11:16:27.097Z,5.70
2022-07-25T11:17:27.003Z,5.50
2022-07-25T11:18:26.993Z,5.40
2022-07-25T11:19:27.022Z,5.00
2022-07-25T11:20:26.972Z,5.40
2022-07-25T11:21:26.964Z,5.20
2022-07-25T11:22:26.959Z,5.20
2022-07-25T11:23:26.946Z,5.10
2022-07-25T11:24:26.964Z,5.30
2022-07-25T11:25:26.932Z,4.50
2022-07-25T11:26:26.913Z,4.90
2022-07-25T11:27:26.916Z,5.10
2022-07-25T11:28:26.897Z,5.20
2022-07-25T11:29:26.888Z,4.90
2022-07-25T11:30:26.907Z,5.00
2022-07-25T11:31:26.897Z,5.30
2022-07-25T11:32:26.866Z,5.40
2022-07-25T11:33:26.857Z,5.40
2022-07-25T11:34:26.841Z,4.80
2022-07-25T11:35:26.879Z,4.70
2022-07-25T11:36:26.825Z,5.70
2022-07-25T11:37:26.817Z,5.00
2022-07-25T11:38:26.807Z,4.90
2022-07-25T11:39:26.798Z,4.90
2022-07-25T11:40:26.787Z,5.50
2022-07-25T11:41:26.803Z,5.30
2022-07-25T11:42:27.772Z,5.30
2022-07-25T11:43:26.763Z,5.00
2022-07-25T11:44:26.758Z,5.30
2022-07-25T11:45:26.741Z,5.10
2022-07-25T11:46:26.800Z,5.00
2022-07-25T11:47:26.724Z,5.60
2022-07-25T11:48:26.781Z,5.40
2022-07-25T11:49:26.781Z,5.20
2022-07-25T11:50:26.699Z,5.10
2022-07-25T11:51:26.690Z,5.10
2022-07-25T11:52:26.706Z,5.40
2022-07-25T11:53:26.675Z,5.40
2022-07-25T11:54:26.661Z,5.00
2022-07-25T11:55:26.657Z,4.70
2022-07-25T11:56:42.610Z,5.30
2022-07-25T11:57:28.669Z,5.20
2022-07-25T11:58:26.631Z,4.80
2022-07-25T11:59:26.623Z,5.10
2022-07-25T12:00:26.614Z,4.90
2022-07-25T12:01:26.603Z,4.80
2022-07-25T12:02:26.756Z,4.90
2022-07-25T12:03:26.725Z,5.00
2022-07-25T12:04:26.581Z,5.10
2022-07-25T12:05:26.569Z,5.30
2022-07-25T12:06:26.612Z,5.00
2022-07-25T12:07:26.553Z,5.20
2022-07-25T12:08:26.629Z,5.70
2022-07-25T12:09:26.537Z,4.80
2022-07-25T12:10:26.532Z,4.90
2022-07-25T12:11:26.519Z,4.80
2022-07-25T12:12:26.514Z,5.00
2022-07-25T12:13:26.599Z,4.90
2022-07-25T12:14:26.491Z,4.80
2022-07-25T12:15:26.489Z,4.50
2022-07-25T12:16:26.552Z,4.80
2022-07-25T12:17:26.473Z,4.60
2022-07-25T12:18:26.460Z,4.60
2022-07-25T12:19:26.490Z,5.20
2022-07-25T12:20:26.449Z,4.70
2022-07-25T12:21:26.434Z,5.00
2022-07-25T12:22:26.424Z,4.80
2022-07-25T12:23:26.416Z,5.00
2022-07-25T12:24:26.436Z,4.80
2022-07-25T12:25:30.658Z,5.30
2022-07-25T12:26:27.387Z,5.20
2022-07-25T12:27:26.384Z,5.10
2022-07-25T12:28:26.374Z,5.30
2022-07-25T12:29:26.370Z,5.10
2022-07-25T12:30:26.435Z,5.10
2022-07-25T12:31:26.373Z,5.00
2022-07-25T12:32:26.411Z,5.10
2022-07-25T12:33:26.333Z,5.00
2022-07-25T12:34:26.348Z,5.10
2022-07-25T12:35:26.361Z,5.20
2022-07-25T12:36:26.304Z,5.10
2022-07-25T12:37:26.315Z,4.70
2022-07-25T12:38:26.292Z,5.10
2022-07-25T12:39:26.289Z,5.00
2022-07-25T12:40:26.274Z,5.30
2022-07-25T12:41:26.300Z,5.10
2022-07-25T12:42:26.247Z,4.80
2022-07-25T12:43:26.238Z,5.10
2022-07-25T12:44:26.232Z,4.90
2022-07-25T12:45:26.229Z,5.20
2022-07-25T12:46:26.319Z,5.00
2022-07-25T12:47:26.209Z,5.40
2022-07-25T12:48:26.292Z,5.30
2022-07-25T12:49:26.248Z,5.60
2022-07-25T12:50:26.243Z,5.70
2022-07-25T12:51:26.166Z,5.20
2022-07-25T12:52:26.187Z,5.50
2022-07-25T12:53:26.145Z,5.50
2022-07-25T12:54:26.134Z,5.60
2022-07-25T12:55:26.132Z,6.10
2022-07-25T12:56:26.120Z,5.90
2022-07-25T12:57:26.123Z,6.10
2022-07-25T12:58:26.100Z,5.90
2022-07-25T12:59:26.144Z,5.70
2022-07-25T13:00:26.080Z,6.40
2022-07-25T13:01:26.091Z,5.90
2022-07-25T13:02:26.148Z,5.90
2022-07-25T13:03:26.050Z,6.10
2022-07-25T13:04:26.047Z,5.60
2022-07-25T13:05:26.028Z,5.60
2022-07-25T13:06:26.031Z,5.80
2022-07-25T13:07:26.029Z,5.70
2022-07-25T13:08:26.007Z,5.50
2022-07-25T13:09:25.994Z,6.00
2022-07-25T13:10:26.007Z,5.90
2022-07-25T13:11:25.977Z,5.40
2022-07-25T13:12:25.979Z,5.40
2022-07-25T13:13:25.959Z,6.20
2022-07-25T13:14:25.952Z,5.80
2022-07-25T13:15:25.936Z,5.60
2022-07-25T13:16:25.989Z,5.90
2022-07-25T13:17:27.713Z,6.10
2022-07-25T13:18:26.910Z,6.30